CST,Max TemperatureF,Mean TemperatureF,Min TemperatureF,Max Dew PointF,MeanDew PointF,Min DewpointF,Max Humidity, Mean Humidity, Min Humidity, Max Sea Level PressureIn, Mean Sea Level PressureIn, Min Sea Level PressureIn, Max VisibilityMiles, Mean VisibilityMiles, Min VisibilityMiles, Max Wind SpeedMPH, Mean Wind SpeedMPH, Max Gust SpeedMPH,PrecipitationIn, CloudCover, Events, WindDirDegrees
2014-2-1,3,-4,-11,1,-7,-18,100,80,65,30.13,30.01,29.80,10,10,4,15,6,,0.00,5,,288
2014-2-2,10,0,-11,3,-4,-18,92,81,67,30.13,30.06,30.01,10,10,9,18,7,25,0.00,4,,200
2014-2-3,12,4,-5,5,-3,-11,92,75,62,30.36,30.18,30.06,10,10,10,15,6,17,0.00,5,,270
2014-2-4,-2,-9,-16,-11,-18,-27,84,63,49,30.55,30.50,30.37,10,10,10,10,5,,0.00,3,,289
2014-2-5,-2,-6,-13,-11,-15,-20,84,65,55,30.57,30.53,30.40,10,10,9,16,9,,0.00,5,,303
2014-2-6,6,-5,-16,1,-13,-26,100,69,34,30.40,30.16,29.95,10,9,2,18,10,24,0.00,3,,238
2014-2-7,5,-3,-11,-6,-12,-27,84,67,27,30.03,29.96,29.90,10,10,6,17,11,22,0.00,0,,224
2014-2-8,3,-6,-14,-2,-15,-27,84,62,50,30.26,30.13,30.03,10,10,7,13,4,,0.00,2,,354
2014-2-9,-7,-10,-14,-17,-20,-26,77,64,53,30.37,30.31,30.24,10,10,10,13,4,,0.00,1,,289
2014-2-10,-4,-12,-20,-15,-23,-29,77,63,46,30.45,30.40,30.32,10,10,10,8,4,,0.00,0,,240
2014-2-11,17,2,-14,16,-5,-27,93,74,34,30.31,29.98,29.73,10,7,1,28,13,39,0.00,3,,182
2014-2-12,12,2,-7,3,-6,-13,92,77,66,30.13,29.95,29.46,10,10,5,23,8,30,0.00,4,,126
2014-2-13,15,5,-7,12,0,-15,86,77,67,29.83,29.62,29.35,10,8,1,22,15,28,0.00,3,,347
2014-2-14,1,-8,-16,-2,-13,-27,100,71,32,30.04,29.95,29.79,10,10,9,17,7,,0.00,3,,269
2014-2-15,12,6,1,3,1,-6,92,74,67,30.16,29.87,29.70,10,10,10,18,10,20,0.00,6,,338
2014-2-16,19,7,-5,14,2,-22,92,73,39,30.15,30.01,29.78,10,9,0,22,9,28,0.00,4,,119
2014-2-17,30,24,17,23,17,12,93,83,69,29.78,29.62,29.47,10,7,2,16,11,,0.00,5,,182
2014-2-18,30,26,19,23,20,16,86,76,64,29.67,29.55,29.43,10,10,10,16,11,,0.00,2,,245
2014-2-19,33,22,10,25,17,9,93,78,60,29.68,29.61,29.47,10,10,5,14,8,,0.00,3,,139
2014-2-20,30,16,1,25,9,-4,93,80,69,29.68,29.58,29.47,10,9,0,24,10,26,0.00,5,,291
2014-2-21,6,2,-2,1,-4,-9,85,78,66,29.72,29.59,29.52,10,4,1,29,20,34,0.00,6,,303
2014-2-22,6,2,-2,0,-5,-9,85,75,67,30.05,29.90,29.72,10,9,3,18,15,25,0.00,2,,281
2014-2-23,8,2,-5,0,-4,-11,78,73,67,30.26,30.17,30.06,10,10,7,23,13,29,0.00,0,,284
2014-2-24,0,-7,-14,-8,-14,-18,84,74,60,30.32,30.29,30.26,10,10,5,15,8,18,0.00,1,,281
2014-2-25,-5,-10,-16,-17,-20,-29,84,64,48,30.36,30.28,30.19,10,10,4,23,11,25,0.00,0,,282
2014-2-26,8,-3,-14,3,-11,-27,79,65,41,30.16,29.84,29.61,10,6,0,34,18,41,0.00,5,,289
2014-2-27,-7,-17,-27,-18,-25,-29,69,52,41,30.15,30.05,29.88,10,10,10,10,6,,0.00,0,,175
2014-2-28,1,-6,-14,-2,-16,-26,85,59,45,30.27,29.93,29.73,10,9,2,22,11,,0.00,3,,281